createdAt,value
2017-06-10T00:00:23.396Z,48.80
2017-06-10T00:02:50.939Z,49.50
2017-06-10T00:05:18.471Z,50.00
2017-06-10T00:07:45.999Z,50.50
2017-06-10T00:10:14.304Z,51.50
2017-06-10T00:12:41.820Z,51.50
2017-06-10T00:15:09.370Z,51.50
2017-06-10T00:17:36.922Z,51.70
2017-06-10T00:20:04.462Z,52.00
2017-06-10T00:22:31.984Z,52.70
2017-06-10T00:24:59.574Z,53.00
2017-06-10T00:27:27.138Z,53.00
2017-06-10T00:29:54.716Z,52.50
2017-06-10T00:32:22.229Z,52.20
2017-06-10T00:34:49.759Z,52.40
2017-06-10T00:37:17.284Z,52.60
2017-06-10T00:39:44.823Z,52.00
2017-06-10T00:42:12.351Z,52.80
2017-06-10T00:44:39.907Z,52.60
2017-06-10T00:47:08.178Z,52.20
2017-06-10T00:49:36.501Z,51.80
2017-06-10T00:52:04.027Z,51.80
2017-06-10T00:54:32.343Z,52.40
2017-06-10T00:56:59.860Z,52.40
2017-06-10T00:59:28.188Z,52.40
2017-06-10T01:01:55.715Z,52.30
2017-06-10T01:04:23.225Z,52.50
2017-06-10T01:06:50.753Z,51.70
2017-06-10T01:09:18.291Z,52.40
2017-06-10T01:11:45.826Z,51.90
2017-06-10T01:14:14.091Z,51.70
2017-06-10T01:16:41.634Z,51.70
2017-06-10T01:19:09.150Z,51.80
2017-06-10T01:21:36.741Z,51.80
2017-06-10T01:24:04.267Z,51.90
2017-06-10T01:26:31.807Z,51.80
2017-06-10T01:29:00.106Z,52.50
2017-06-10T01:31:27.664Z,52.50
2017-06-10T01:33:55.201Z,52.10
2017-06-10T01:36:23.537Z,51.90
2017-06-10T01:38:51.051Z,51.90
2017-06-10T01:41:18.585Z,52.10
2017-06-10T01:43:46.119Z,52.30
2017-06-10T01:46:13.690Z,52.60
2017-06-10T01:48:41.238Z,52.80
2017-06-10T01:51:08.791Z,52.80
2017-06-10T01:53:36.313Z,52.90
2017-06-10T01:56:03.856Z,52.60
2017-06-10T01:58:32.181Z,52.60
2017-06-10T02:00:59.760Z,52.60
2017-06-10T02:03:27.284Z,52.90
2017-06-10T02:05:54.833Z,53.00
2017-06-10T02:08:22.402Z,52.50
2017-06-10T02:10:49.944Z,52.30
2017-06-10T02:13:18.215Z,52.10
2017-06-10T02:15:46.531Z,52.30
2017-06-10T02:18:14.059Z,52.30
2017-06-10T02:20:41.593Z,52.70
2017-06-10T02:23:09.107Z,52.90
2017-06-10T02:25:36.669Z,52.80
2017-06-10T02:28:04.192Z,52.40
2017-06-10T02:30:32.479Z,52.20
2017-06-10T02:33:00.045Z,52.10
2017-06-10T02:35:27.589Z,52.40
2017-06-10T02:37:55.880Z,52.20
2017-06-10T02:40:23.407Z,52.20
2017-06-10T02:42:50.954Z,52.20
2017-06-10T02:45:18.492Z,52.50
2017-06-10T02:47:46.019Z,52.50
2017-06-10T02:50:13.550Z,52.80
2017-06-10T02:52:41.070Z,52.50
2017-06-10T02:55:08.584Z,52.40
2017-06-10T02:57:36.955Z,52.60
2017-06-10T03:00:04.502Z,52.50
2017-06-10T03:02:32.021Z,52.10
2017-06-10T03:04:59.538Z,52.40
2017-06-10T03:07:27.835Z,52.60
2017-06-10T03:09:55.359Z,52.60
2017-06-10T03:12:23.687Z,52.30
2017-06-10T03:14:51.245Z,52.30
2017-06-10T03:17:18.844Z,52.40
2017-06-10T03:19:46.415Z,52.10
2017-06-10T03:22:13.976Z,51.90
2017-06-10T03:24:41.471Z,52.40
2017-06-10T03:27:09.000Z,52.20
2017-06-10T03:29:36.540Z,52.70
2017-06-10T03:32:04.136Z,52.00
2017-06-10T03:34:31.694Z,52.40
2017-06-10T03:36:59.233Z,52.10
2017-06-10T03:39:26.735Z,52.10
2017-06-10T03:41:54.289Z,52.20
2017-06-10T03:44:21.847Z,52.30
2017-06-10T03:46:49.362Z,52.40
2017-06-10T03:49:16.879Z,52.60
2017-06-10T03:51:44.397Z,52.40
2017-06-10T03:54:12.732Z,52.10
2017-06-10T03:56:40.269Z,51.90
2017-06-10T03:59:07.813Z,52.00
2017-06-10T04:01:35.680Z,52.40
2017-06-10T04:04:03.236Z,52.80
2017-06-10T04:06:30.782Z,52.80
2017-06-10T04:08:58.376Z,53.00
2017-06-10T04:11:25.926Z,52.80
2017-06-10T04:13:53.495Z,52.90
2017-06-10T04:16:21.054Z,52.90
2017-06-10T04:18:48.562Z,52.30
2017-06-10T04:21:16.075Z,52.60
2017-06-10T04:23:43.614Z,52.40
2017-06-10T04:26:11.927Z,52.30
2017-06-10T04:28:39.459Z,52.30
2017-06-10T04:31:07.014Z,52.80
2017-06-10T04:33:35.311Z,52.50
2017-06-10T04:36:02.864Z,52.30
2017-06-10T04:38:30.408Z,52.30
2017-06-10T04:40:57.988Z,52.10
2017-06-10T04:43:25.532Z,52.50
2017-06-10T04:45:53.815Z,52.60
2017-06-10T04:48:21.368Z,52.60
2017-06-10T04:50:48.885Z,53.20
2017-06-10T04:53:16.416Z,52.60
2017-06-10T04:55:43.948Z,52.40
2017-06-10T04:58:11.498Z,52.80
2017-06-10T05:00:39.769Z,52.40
2017-06-10T05:03:08.070Z,53.10
2017-06-10T05:05:35.598Z,52.50
2017-06-10T05:08:03.144Z,52.50
2017-06-10T05:10:30.677Z,52.70
2017-06-10T05:12:58.208Z,52.50
2017-06-10T05:15:25.730Z,52.60
2017-06-10T05:17:53.252Z,52.60
2017-06-10T05:20:20.784Z,52.50
2017-06-10T05:22:48.331Z,52.70
2017-06-10T05:25:16.614Z,52.20
2017-06-10T05:27:44.145Z,52.10
2017-06-10T05:30:11.661Z,51.80
2017-06-10T05:32:39.223Z,51.40
2017-06-10T05:35:06.719Z,51.90
2017-06-10T05:37:34.296Z,51.00
2017-06-10T05:40:01.828Z,50.80
2017-06-10T05:42:29.354Z,51.10
2017-06-10T05:44:56.871Z,51.30
2017-06-10T05:47:24.387Z,51.00
2017-06-10T05:49:51.919Z,51.30
2017-06-10T05:52:19.454Z,49.50
2017-06-10T05:54:46.984Z,49.50
2017-06-10T05:57:14.517Z,50.40
2017-06-10T05:59:42.065Z,49.50
2017-06-10T06:02:09.593Z,49.30
2017-06-10T06:04:37.912Z,49.50
2017-06-10T06:07:05.434Z,49.30
2017-06-10T06:09:33.748Z,49.30
2017-06-10T06:12:01.267Z,49.30
2017-06-10T06:14:29.600Z,48.80
2017-06-10T06:16:57.165Z,48.70
2017-06-10T06:19:24.684Z,48.90
2017-06-10T06:21:52.240Z,47.70
2017-06-10T06:24:19.786Z,48.00
2017-06-10T06:26:48.097Z,48.00
2017-06-10T06:29:15.658Z,48.00
2017-06-10T06:31:43.201Z,48.10
2017-06-10T06:34:10.753Z,48.40
2017-06-10T06:36:39.043Z,47.20
2017-06-10T06:39:06.599Z,47.20
2017-06-10T06:41:34.122Z,45.30
2017-06-10T06:44:02.500Z,40.30
2017-06-10T06:46:30.030Z,40.20
2017-06-10T06:48:57.617Z,38.10
2017-06-10T06:51:25.179Z,34.40
2017-06-10T06:53:52.725Z,33.00
2017-06-10T06:56:20.268Z,33.30
2017-06-10T06:58:47.826Z,33.10
2017-06-10T07:01:15.373Z,31.70
2017-06-10T07:03:42.960Z,30.70
2017-06-10T07:06:10.488Z,30.10
2017-06-10T07:08:38.076Z,29.70
2017-06-10T07:11:05.580Z,30.60
2017-06-10T07:13:33.949Z,28.60
2017-06-10T07:16:01.483Z,28.50
2017-06-10T07:18:29.039Z,29.30
2017-06-10T07:20:56.582Z,28.60
2017-06-10T07:23:24.142Z,27.40
2017-06-10T07:25:51.673Z,25.90
2017-06-10T07:28:19.264Z,26.50
2017-06-10T07:30:46.845Z,24.70
2017-06-10T07:33:14.401Z,25.30
2017-06-10T07:35:41.910Z,24.70
2017-06-10T07:38:09.417Z,24.50
2017-06-10T07:40:36.987Z,25.30
2017-06-10T07:43:04.525Z,25.80
2017-06-10T07:45:32.135Z,25.20
2017-06-10T07:47:59.662Z,25.20
2017-06-10T07:50:27.189Z,25.00
2017-06-10T07:52:54.696Z,24.60
2017-06-10T07:55:22.237Z,24.40
2017-06-10T07:57:49.791Z,23.60
2017-06-10T08:00:17.357Z,22.80
2017-06-10T08:02:44.936Z,22.80
2017-06-10T08:05:12.484Z,23.40
2017-06-10T08:07:40.006Z,22.10
2017-06-10T08:10:07.629Z,22.40
2017-06-10T08:12:35.947Z,22.30
2017-06-10T08:15:03.512Z,22.30
2017-06-10T08:17:31.051Z,22.80
2017-06-10T08:19:58.626Z,23.70
2017-06-10T08:22:26.200Z,25.30
2017-06-10T08:24:53.730Z,23.80
2017-06-10T08:27:21.263Z,23.90
2017-06-10T08:29:48.802Z,23.20
2017-06-10T08:32:16.355Z,23.40
2017-06-10T08:34:43.938Z,23.80
2017-06-10T08:37:11.539Z,24.10
2017-06-10T08:39:39.071Z,23.50
2017-06-10T08:42:07.399Z,22.20
2017-06-10T08:44:34.952Z,22.20
2017-06-10T08:47:02.504Z,21.90
2017-06-10T08:49:30.041Z,22.10
2017-06-10T08:51:58.348Z,20.70
2017-06-10T08:54:25.862Z,20.60
2017-06-10T08:56:54.126Z,22.70
2017-06-10T08:59:21.678Z,22.10
2017-06-10T09:01:49.210Z,22.40
2017-06-10T09:04:16.734Z,22.30
2017-06-10T09:06:44.238Z,21.70
2017-06-10T09:09:11.813Z,22.00
2017-06-10T09:11:39.335Z,21.50
2017-06-10T09:14:06.901Z,20.00
2017-06-10T09:16:34.471Z,20.30
2017-06-10T09:19:02.017Z,20.30
2017-06-10T09:21:29.568Z,19.20
2017-06-10T09:23:57.115Z,19.60
2017-06-10T09:26:24.645Z,20.20
2017-06-10T09:28:52.181Z,20.50
2017-06-10T09:31:19.712Z,21.00
2017-06-10T09:33:47.212Z,22.60
2017-06-10T09:36:14.766Z,21.80
2017-06-10T09:38:42.312Z,22.80
2017-06-10T09:41:09.866Z,20.90
2017-06-10T09:43:38.157Z,21.00
2017-06-10T09:46:05.697Z,20.90
2017-06-10T09:48:33.218Z,22.10
2017-06-10T09:51:01.507Z,22.80
2017-06-10T09:53:29.049Z,22.70
2017-06-10T09:55:57.389Z,22.70
2017-06-10T09:58:24.912Z,22.60
2017-06-10T10:00:52.459Z,23.80
2017-06-10T10:03:20.765Z,22.50
2017-06-10T10:05:48.310Z,22.50
2017-06-10T10:08:15.820Z,21.10
2017-06-10T10:10:43.352Z,20.00
2017-06-10T10:13:10.866Z,20.20
2017-06-10T10:15:38.395Z,20.50
2017-06-10T10:18:05.938Z,20.00
2017-06-10T10:20:33.473Z,19.40
2017-06-10T10:23:01.007Z,19.10
2017-06-10T10:25:29.318Z,19.10
2017-06-10T10:27:56.819Z,19.00
2017-06-10T10:30:24.370Z,19.10
2017-06-10T10:32:51.922Z,18.40
2017-06-10T10:35:19.442Z,18.00
2017-06-10T10:37:46.977Z,18.60
2017-06-10T10:40:15.309Z,19.80
2017-06-10T10:42:42.827Z,19.70
2017-06-10T10:45:10.355Z,20.20
2017-06-10T10:47:37.862Z,19.20
2017-06-10T10:50:05.418Z,19.50
2017-06-10T10:52:32.972Z,20.00
2017-06-10T10:55:00.465Z,21.20
2017-06-10T10:57:28.041Z,22.70
2017-06-10T10:59:55.551Z,23.90
2017-06-10T11:02:23.110Z,23.90
2017-06-10T11:04:50.616Z,23.60
2017-06-10T11:07:18.183Z,24.40
2017-06-10T11:09:45.707Z,22.80
2017-06-10T11:12:13.243Z,23.10
2017-06-10T11:14:40.818Z,24.20
2017-06-10T11:17:08.342Z,24.00
2017-06-10T11:19:36.611Z,22.70
2017-06-10T11:22:04.184Z,22.70
2017-06-10T11:24:32.462Z,20.70
2017-06-10T11:27:00.768Z,21.40
2017-06-10T11:29:28.324Z,21.30
2017-06-10T11:34:50.076Z,22.10
2017-06-10T11:37:17.636Z,21.20
2017-06-10T11:39:45.173Z,18.90
2017-06-10T11:42:13.521Z,18.20
2017-06-10T11:44:41.065Z,18.10
2017-06-10T11:47:08.605Z,19.30
2017-06-10T11:49:36.159Z,19.90
2017-06-10T11:52:03.704Z,20.80
2017-06-10T11:54:31.257Z,20.70
2017-06-10T11:56:58.803Z,21.80
2017-06-10T11:59:26.373Z,20.50
2017-06-10T12:01:53.936Z,19.00
2017-06-10T12:04:21.476Z,19.70
2017-06-10T12:06:49.797Z,19.40
2017-06-10T12:09:17.335Z,19.40
2017-06-10T12:11:44.874Z,19.80
2017-06-10T12:14:13.152Z,21.50
2017-06-10T12:16:40.674Z,21.40
2017-06-10T12:19:08.206Z,20.60
2017-06-10T12:21:35.743Z,19.90
2017-06-10T12:24:03.380Z,20.40
2017-06-10T12:26:30.907Z,20.10
2017-06-10T12:28:58.474Z,18.50
2017-06-10T12:31:26.029Z,20.70
2017-06-10T12:33:53.571Z,20.30
2017-06-10T12:36:21.123Z,19.10
2017-06-10T12:38:48.644Z,19.50
2017-06-10T12:41:16.188Z,21.20
2017-06-10T12:43:43.709Z,19.30
2017-06-10T12:46:11.258Z,18.90
2017-06-10T12:48:38.804Z,18.40
2017-06-10T12:51:06.348Z,17.30
2017-06-10T12:53:33.883Z,16.80
2017-06-10T12:56:01.418Z,16.30
2017-06-10T12:58:28.959Z,15.80
2017-06-10T13:00:56.550Z,16.40
2017-06-10T13:03:24.095Z,17.60
2017-06-10T13:05:51.657Z,19.00
2017-06-10T13:08:19.187Z,17.90
2017-06-10T13:10:46.721Z,17.80
2017-06-10T13:13:15.068Z,19.30
2017-06-10T13:15:42.591Z,19.30
2017-06-10T13:18:10.147Z,19.90
2017-06-10T13:20:37.673Z,21.10
2017-06-10T13:23:05.199Z,20.80
2017-06-10T13:25:32.729Z,20.50
2017-06-10T13:28:00.279Z,21.20
2017-06-10T13:30:27.800Z,21.60
2017-06-10T13:32:55.351Z,21.70
2017-06-10T13:35:22.846Z,22.60
2017-06-10T13:37:50.428Z,22.30
2017-06-10T13:40:17.975Z,22.60
2017-06-10T13:42:46.282Z,21.80
2017-06-10T13:45:13.845Z,21.80
2017-06-10T13:47:41.389Z,22.50
2017-06-10T13:50:08.936Z,21.00
2017-06-10T13:52:36.458Z,21.00
2017-06-10T13:55:03.950Z,21.00
2017-06-10T13:57:31.474Z,21.00
2017-06-10T13:59:59.005Z,22.60
2017-06-10T14:02:26.603Z,22.70
2017-06-10T14:04:54.128Z,23.10
2017-06-10T14:07:21.675Z,23.40
2017-06-10T14:09:49.222Z,25.30
2017-06-10T14:12:16.757Z,25.30
2017-06-10T14:14:45.130Z,25.50
2017-06-10T14:17:13.437Z,25.80
2017-06-10T14:19:40.946Z,25.40
2017-06-10T14:22:08.468Z,25.80
2017-06-10T14:24:35.990Z,24.70
2017-06-10T14:27:04.289Z,25.50
2017-06-10T14:29:31.834Z,25.50
2017-06-10T14:32:00.256Z,25.20
2017-06-10T14:34:27.785Z,25.20
2017-06-10T14:36:55.299Z,26.40
2017-06-10T14:39:22.836Z,25.70
2017-06-10T14:41:50.379Z,24.70
2017-06-10T14:44:17.926Z,24.90
2017-06-10T14:46:45.447Z,25.50
2017-06-10T14:49:12.976Z,25.90
2017-06-10T14:51:40.525Z,24.70
2017-06-10T14:54:08.091Z,24.60
2017-06-10T14:56:35.608Z,25.00
2017-06-10T14:59:03.913Z,24.20
2017-06-10T15:01:31.442Z,23.70
2017-06-10T15:03:59.779Z,26.00
2017-06-10T15:06:27.288Z,25.90
2017-06-10T15:08:54.828Z,26.00
2017-06-10T15:11:22.335Z,26.00
2017-06-10T15:13:49.922Z,27.50
2017-06-10T15:16:17.448Z,26.80
2017-06-10T15:18:44.982Z,26.00
2017-06-10T15:21:13.270Z,27.00
2017-06-10T15:23:40.824Z,27.00
2017-06-10T15:26:09.106Z,26.80
2017-06-10T15:28:36.678Z,26.80
2017-06-10T15:31:04.220Z,26.90
2017-06-10T15:33:32.535Z,27.30
2017-06-10T15:36:00.074Z,27.20
2017-06-10T15:38:27.628Z,27.40
2017-06-10T15:40:55.130Z,26.90
2017-06-10T15:43:22.651Z,24.80
2017-06-10T15:45:50.188Z,26.30
2017-06-10T15:48:18.530Z,26.50
2017-06-10T15:50:46.060Z,26.40
2017-06-10T15:53:13.632Z,25.20
2017-06-10T15:55:41.212Z,26.50
2017-06-10T15:58:08.752Z,26.30
2017-06-10T16:00:36.282Z,26.10
2017-06-10T16:03:03.798Z,26.80
2017-06-10T16:05:31.356Z,27.30
2017-06-10T16:07:58.903Z,27.70
2017-06-10T16:10:26.475Z,27.80
2017-06-10T16:12:54.002Z,28.30
2017-06-10T16:15:21.528Z,27.30
2017-06-10T16:17:49.826Z,28.20
2017-06-10T16:20:17.363Z,28.20
2017-06-10T16:22:45.636Z,27.30
2017-06-10T16:25:13.939Z,27.50
2017-06-10T16:27:41.441Z,27.40
2017-06-10T16:30:08.981Z,28.20
2017-06-10T16:32:36.506Z,28.90
2017-06-10T16:35:04.084Z,29.30
2017-06-10T16:37:31.612Z,28.20
2017-06-10T16:39:59.927Z,28.70
2017-06-10T16:42:27.427Z,28.60
2017-06-10T16:44:54.982Z,28.80
2017-06-10T16:47:22.491Z,29.50
2017-06-10T16:49:50.059Z,29.30
2017-06-10T16:52:17.572Z,29.00
2017-06-10T16:54:45.092Z,28.90
2017-06-10T16:57:12.607Z,28.10
2017-06-10T16:59:40.908Z,29.60
2017-06-10T17:02:08.441Z,29.60
2017-06-10T17:04:36.754Z,28.40
2017-06-10T17:07:04.309Z,28.40
2017-06-10T17:09:31.850Z,28.20
2017-06-10T17:11:59.363Z,29.40
2017-06-10T17:14:26.912Z,29.30
2017-06-10T17:16:54.428Z,28.60
2017-06-10T17:19:21.972Z,28.60
2017-06-10T17:21:49.533Z,28.10
2017-06-10T17:24:17.090Z,28.50
2017-06-10T17:26:44.595Z,29.20
2017-06-10T17:29:12.165Z,28.60
2017-06-10T17:31:39.693Z,28.70
2017-06-10T17:34:07.308Z,28.80
2017-06-10T17:36:34.852Z,29.00
2017-06-10T17:39:02.382Z,29.30
2017-06-10T17:41:29.932Z,29.80
2017-06-10T17:43:57.451Z,30.00
2017-06-10T17:46:24.994Z,30.10
2017-06-10T17:48:52.503Z,29.90
2017-06-10T17:51:20.038Z,29.70
2017-06-10T17:53:48.356Z,30.30
2017-06-10T17:56:15.928Z,30.30
2017-06-10T17:58:43.447Z,30.10
2017-06-10T18:01:10.981Z,29.50
2017-06-10T18:03:38.524Z,30.00
2017-06-10T18:06:06.103Z,30.40
2017-06-10T18:08:33.657Z,29.90
2017-06-10T18:11:01.274Z,29.70
2017-06-10T18:13:28.842Z,29.40
2017-06-10T18:15:56.363Z,29.20
2017-06-10T18:18:23.881Z,30.50
2017-06-10T18:20:51.403Z,30.40
2017-06-10T18:23:18.930Z,29.70
2017-06-10T18:25:52.053Z,30.90
2017-06-10T18:28:19.606Z,31.10
2017-06-10T18:31:01.784Z,31.70
2017-06-10T18:33:29.401Z,29.80
2017-06-10T18:35:56.947Z,29.90
2017-06-10T18:38:24.468Z,30.00
2017-06-10T18:40:52.023Z,30.10
2017-06-10T18:43:19.540Z,30.00
2017-06-10T18:45:47.091Z,30.00
2017-06-10T18:48:14.659Z,31.10
2017-06-10T18:50:42.304Z,32.40
2017-06-10T18:53:09.869Z,30.00
2017-06-10T18:55:37.432Z,31.00
2017-06-10T18:58:04.985Z,30.60
2017-06-10T19:00:32.565Z,33.30
2017-06-10T19:03:00.106Z,36.30
2017-06-10T19:05:27.667Z,33.00
2017-06-10T19:07:55.213Z,31.70
2017-06-10T19:10:22.763Z,32.70
2017-06-10T19:12:50.367Z,33.00
2017-06-10T19:15:17.944Z,36.40
2017-06-10T19:17:45.513Z,31.90
2017-06-10T19:20:13.064Z,33.20
2017-06-10T19:22:40.608Z,35.00
2017-06-10T19:25:08.180Z,32.50
2017-06-10T19:27:35.702Z,33.50
2017-06-10T19:30:03.237Z,37.00
2017-06-10T19:32:30.794Z,36.80
2017-06-10T19:34:58.361Z,37.70
2017-06-10T19:37:25.944Z,38.80
2017-06-10T19:39:53.488Z,35.60
2017-06-10T19:42:21.055Z,35.50
2017-06-10T19:44:48.611Z,36.40
2017-06-10T19:47:16.168Z,35.70
2017-06-10T19:49:43.782Z,36.60
2017-06-10T19:52:11.347Z,37.00
2017-06-10T19:54:39.167Z,39.10
2017-06-10T19:57:06.749Z,38.00
2017-06-10T19:59:34.332Z,39.50
2017-06-10T20:02:01.874Z,37.60
2017-06-10T20:04:29.398Z,38.50
2017-06-10T20:06:57.015Z,40.10
2017-06-10T20:09:24.547Z,39.80
2017-06-10T20:11:52.088Z,38.80
2017-06-10T20:14:19.646Z,39.40
2017-06-10T20:16:47.208Z,38.90
2017-06-10T20:19:14.768Z,39.20
2017-06-10T20:21:42.450Z,39.50
2017-06-10T20:24:10.052Z,39.70
2017-06-10T20:26:37.586Z,39.60
2017-06-10T20:29:05.136Z,41.10
2017-06-10T20:31:32.694Z,40.00
2017-06-10T20:34:00.262Z,40.90
2017-06-10T20:36:27.810Z,40.80
2017-06-10T20:38:55.370Z,40.10
2017-06-10T20:41:22.947Z,40.50
2017-06-10T20:43:50.464Z,40.10
2017-06-10T20:46:18.000Z,40.40
2017-06-10T20:48:45.579Z,40.40
2017-06-10T20:51:13.919Z,40.60
2017-06-10T20:53:41.443Z,41.20
2017-06-10T20:56:08.979Z,40.10
2017-06-10T20:58:36.497Z,40.20
2017-06-10T21:01:04.068Z,40.80
2017-06-10T21:03:31.616Z,40.80
2017-06-10T21:05:59.210Z,40.90
2017-06-10T21:08:27.552Z,41.30
2017-06-10T21:10:55.147Z,41.30
2017-06-10T21:13:23.474Z,40.80
2017-06-10T21:15:51.019Z,40.80
2017-06-10T21:18:18.589Z,41.10
2017-06-10T21:20:46.129Z,41.20
2017-06-10T21:23:13.708Z,41.50
2017-06-10T21:25:41.243Z,41.70
2017-06-10T21:28:08.775Z,41.40
2017-06-10T21:30:36.319Z,41.30
2017-06-10T21:33:04.689Z,42.00
2017-06-10T21:35:32.222Z,41.30
2017-06-10T21:37:59.828Z,41.50
2017-06-10T21:40:27.363Z,41.60
2017-06-10T21:42:54.901Z,42.30
2017-06-10T21:45:22.425Z,41.90
2017-06-10T21:47:50.747Z,42.00
2017-06-10T21:50:18.266Z,41.90
2017-06-10T21:52:46.581Z,42.70
2017-06-10T21:55:14.152Z,42.60
2017-06-10T21:57:41.705Z,42.80
2017-06-10T22:00:09.230Z,42.70
2017-06-10T22:02:36.818Z,43.20
2017-06-10T22:05:04.342Z,43.50
2017-06-10T22:07:31.884Z,44.10
2017-06-10T22:09:59.448Z,44.30
2017-06-10T22:12:27.741Z,45.10
2017-06-10T22:14:55.307Z,45.00
2017-06-10T22:17:22.863Z,44.70
2017-06-10T22:19:51.198Z,45.50
2017-06-10T22:22:18.726Z,45.50
2017-06-10T22:24:46.270Z,45.70
2017-06-10T22:27:13.814Z,46.00
2017-06-10T22:29:42.122Z,46.30
2017-06-10T22:32:09.671Z,46.30
2017-06-10T22:34:37.206Z,46.10
2017-06-10T22:37:04.729Z,46.50
2017-06-10T22:39:32.295Z,46.70
2017-06-10T22:41:59.862Z,47.30
2017-06-10T22:44:27.391Z,47.30
2017-06-10T22:46:54.912Z,47.30
2017-06-10T22:49:22.480Z,47.10
2017-06-10T22:51:50.000Z,47.20
2017-06-10T22:54:17.553Z,47.60
2017-06-10T22:56:45.106Z,48.10
2017-06-10T22:59:12.679Z,47.60
2017-06-10T23:01:40.234Z,47.50
2017-06-10T23:04:07.828Z,47.50
2017-06-10T23:06:36.144Z,47.80
2017-06-10T23:09:03.680Z,47.70
2017-06-10T23:11:31.219Z,47.80
2017-06-10T23:13:58.748Z,47.70
2017-06-10T23:16:26.280Z,47.30
2017-06-10T23:18:53.827Z,47.10
2017-06-10T23:21:21.361Z,46.80
2017-06-10T23:23:49.705Z,46.80
2017-06-10T23:26:17.256Z,46.70
2017-06-10T23:28:44.809Z,46.60
2017-06-10T23:31:12.322Z,46.60
2017-06-10T23:33:40.655Z,46.30
2017-06-10T23:36:08.180Z,46.30
2017-06-10T23:38:35.727Z,46.30
2017-06-10T23:41:04.054Z,46.20
2017-06-10T23:43:31.608Z,46.20
2017-06-10T23:45:59.175Z,46.00
2017-06-10T23:48:26.717Z,46.10
2017-06-10T23:50:54.232Z,46.00
2017-06-10T23:53:21.791Z,46.00
2017-06-10T23:55:49.298Z,46.00
2017-06-10T23:58:16.858Z,45.90
